East Shelburn, Indiana
Current Conditions -  °F | °C
As of 9:53 PM on Friday 31 Oct 2014 (Local Time) from KHUF Reporting Station
Light Snow Light Snow  
Wind Chill: 27°   Ceiling: 2600
Heat Index: 38°   Visibility: 10mi
Dew Point: 29°   Wind: 25mph
Humidity: 70%   Direction: 340°NNW
Pressure: 30.2"   Gusts: 39mph
Location:  39.2094°N, 87.3438°W
Report Text: KHUF 010153Z 34022G34KT 10SM -SN OVC026 03/M02 A3020 RMK AO2 PK WND 36036/0133 RAE07SNB36 SLP232 P0000 T00331017
Loading
Personal Weather Stations






























Interactive Weather Map
Tropical Storm Tracking
New forecast layout! Learn more

10-Day Weather Forecast

Advertisements
Track Severe Weather on mobile